TAF and METAR

Decoding for American and Canadian METARs and TAFs is not fully implemented.

Could not understand the following METAR

KIFP 061150Z AUTO 16005KT 10SM CLR 28/02 A2972 RMK AO2

TAF for Laughlin/Bullhead International Airport

KIFP 061120Z 0612/0712 VRB05KT P6SM SKC FM061600 20008KT P6SM SKC FM062100 18017G26KT P6SM SKC FM070300 15010KT P6SM SKC FM070900 VRB05KT P6SM SKC
Report created 6. aug 13:20

between 6. aug 14:00 - 7. aug 14:00

wind 5 knots from various directions
Laughlin/Bullhead International Airport in United States of America at 212m

Latest 5 airports